createdAt,value
2019-05-21T00:00:54.334Z,13.65
2019-05-21T00:01:54.180Z,13.62
2019-05-21T00:02:54.186Z,13.63
2019-05-21T00:03:54.218Z,13.56
2019-05-21T00:04:54.200Z,13.54
2019-05-21T00:05:54.121Z,13.60
2019-05-21T00:06:54.248Z,13.59
2019-05-21T00:07:54.144Z,13.68
2019-05-21T00:09:03.300Z,13.62
2019-05-21T00:09:54.095Z,13.60
2019-05-21T00:10:54.142Z,13.68
2019-05-21T00:11:54.054Z,13.68
2019-05-21T00:12:54.153Z,13.63
2019-05-21T00:13:54.035Z,13.62
2019-05-21T00:14:54.120Z,13.65
2019-05-21T00:15:54.024Z,13.63
2019-05-21T00:16:54.084Z,13.60
2019-05-21T00:17:54.102Z,13.62
2019-05-21T00:18:54.041Z,13.53
2019-05-21T00:19:54.045Z,13.54
2019-05-21T00:20:53.967Z,13.56
2019-05-21T00:21:53.979Z,13.52
2019-05-21T00:22:54.017Z,13.49
2019-05-21T00:23:53.948Z,13.53
2019-05-21T00:24:54.041Z,13.46
2019-05-21T00:25:53.921Z,13.49
2019-05-21T00:26:53.943Z,13.42
2019-05-21T00:27:53.946Z,13.50
2019-05-21T00:28:53.923Z,13.50
2019-05-21T00:29:54.005Z,13.52
2019-05-21T00:30:53.859Z,13.47
2019-05-21T00:31:53.876Z,13.47
2019-05-21T00:32:53.890Z,13.46
2019-05-21T00:33:53.891Z,13.41
2019-05-21T00:34:53.829Z,13.44
2019-05-21T00:35:53.974Z,13.39
2019-05-21T00:36:54.056Z,13.39
2019-05-21T00:37:53.805Z,13.44
2019-05-21T00:38:53.776Z,13.42
2019-05-21T00:39:54.837Z,13.50
2019-05-21T00:40:53.761Z,13.47
2019-05-21T00:41:53.895Z,13.44
2019-05-21T00:42:53.744Z,13.42
2019-05-21T00:43:53.745Z,13.50
2019-05-21T00:44:53.762Z,13.42
2019-05-21T00:45:53.708Z,13.41
2019-05-21T00:46:53.857Z,13.42
2019-05-21T00:47:53.731Z,13.46
2019-05-21T00:48:53.676Z,13.52
2019-05-21T00:49:53.664Z,13.44
2019-05-21T00:50:53.712Z,13.49
2019-05-21T00:52:06.491Z,13.46
2019-05-21T00:52:54.688Z,13.42
2019-05-21T00:53:53.714Z,13.41
2019-05-21T00:54:53.678Z,13.46
2019-05-21T00:55:53.620Z,13.41
2019-05-21T00:56:53.704Z,13.39
2019-05-21T00:57:53.574Z,13.37
2019-05-21T00:58:53.652Z,13.39
2019-05-21T00:59:53.564Z,13.37
2019-05-21T01:00:53.543Z,13.37
2019-05-21T01:01:54.673Z,13.30
2019-05-21T01:02:53.592Z,13.37
2019-05-21T01:03:53.639Z,13.38
2019-05-21T01:05:00.641Z,13.33
2019-05-21T01:05:54.516Z,13.37
2019-05-21T01:06:53.477Z,13.35
2019-05-21T01:07:53.505Z,13.25
2019-05-21T01:08:53.516Z,13.35
2019-05-21T01:09:53.520Z,13.31
2019-05-21T01:10:53.438Z,13.31
2019-05-21T01:11:53.421Z,13.35
2019-05-21T01:12:53.410Z,13.28
2019-05-21T01:13:53.503Z,13.35
2019-05-21T01:14:53.436Z,13.31
2019-05-21T01:15:53.460Z,13.35
2019-05-21T01:16:53.417Z,13.35
2019-05-21T01:17:53.471Z,13.30
2019-05-21T01:18:53.357Z,13.33
2019-05-21T01:19:53.391Z,13.33
2019-05-21T01:20:53.383Z,13.23
2019-05-21T01:21:53.399Z,13.25
2019-05-21T01:22:53.474Z,13.23
2019-05-21T01:23:53.335Z,13.38
2019-05-21T01:24:54.337Z,13.37
2019-05-21T01:25:53.285Z,13.39
2019-05-21T01:26:53.399Z,13.35
2019-05-21T01:27:53.259Z,13.31
2019-05-21T01:28:53.286Z,13.28
2019-05-21T01:29:53.238Z,13.31
2019-05-21T01:30:53.393Z,13.35
2019-05-21T01:31:53.214Z,13.30
2019-05-21T01:32:53.294Z,13.30
2019-05-21T01:33:53.238Z,13.30
2019-05-21T01:34:53.291Z,13.35
2019-05-21T01:35:53.223Z,13.35
2019-05-21T01:36:53.252Z,13.28
2019-05-21T01:37:53.219Z,13.23
2019-05-21T01:38:53.212Z,13.28
2019-05-21T01:39:53.144Z,13.28
2019-05-21T01:40:53.221Z,13.28
2019-05-21T01:41:53.160Z,13.39
2019-05-21T01:42:54.144Z,13.33
2019-05-21T01:43:53.093Z,13.38
2019-05-21T01:44:54.161Z,13.31
2019-05-21T01:45:53.094Z,13.31
2019-05-21T01:46:53.119Z,13.27
2019-05-21T01:47:53.045Z,13.33
2019-05-21T01:48:53.076Z,13.35
2019-05-21T01:49:53.025Z,13.35
2019-05-21T01:50:53.008Z,13.30
2019-05-21T01:51:53.063Z,13.35
2019-05-21T01:52:53.103Z,13.31
2019-05-21T01:53:52.995Z,13.31
2019-05-21T01:54:53.036Z,13.30
2019-05-21T01:55:52.990Z,13.39
2019-05-21T01:56:53.013Z,13.27
2019-05-21T01:57:53.047Z,13.35
2019-05-21T01:58:52.929Z,13.31
2019-05-21T01:59:52.949Z,13.33
2019-05-21T02:00:52.905Z,13.37
2019-05-21T02:01:53.023Z,13.30
2019-05-21T02:02:52.885Z,13.31
2019-05-21T02:03:52.986Z,13.28
2019-05-21T02:04:53.398Z,13.28
2019-05-21T02:05:52.907Z,13.31
2019-05-21T02:06:52.916Z,13.30
2019-05-21T02:07:52.840Z,13.18
2019-05-21T02:08:52.849Z,13.31
2019-05-21T02:09:52.912Z,13.23
2019-05-21T02:10:52.880Z,13.19
2019-05-21T02:11:52.860Z,13.18
2019-05-21T02:12:52.773Z,13.31
2019-05-21T02:13:52.810Z,13.28
2019-05-21T02:14:52.844Z,13.25
2019-05-21T02:15:52.799Z,13.19
2019-05-21T02:16:52.863Z,13.19
2019-05-21T02:17:52.755Z,13.20
2019-05-21T02:18:52.711Z,13.15
2019-05-21T02:19:52.703Z,13.19
2019-05-21T02:20:53.770Z,13.09
2019-05-21T02:21:52.693Z,13.11
2019-05-21T02:22:52.699Z,13.08
2019-05-21T02:23:52.739Z,13.05
2019-05-21T02:24:52.653Z,13.09
2019-05-21T02:25:52.706Z,13.11
2019-05-21T02:26:52.782Z,13.08
2019-05-21T02:27:52.628Z,13.04
2019-05-21T02:28:52.634Z,13.03
2019-05-21T02:29:52.595Z,13.04
2019-05-21T02:30:56.417Z,13.11
2019-05-21T02:31:52.659Z,13.03
2019-05-21T02:32:52.587Z,12.98
2019-05-21T02:33:52.580Z,12.93
2019-05-21T02:34:52.551Z,12.97
2019-05-21T02:35:54.652Z,12.87
2019-05-21T02:36:52.546Z,12.90
2019-05-21T02:37:52.597Z,12.91
2019-05-21T02:38:52.512Z,12.93
2019-05-21T02:39:52.542Z,12.91
2019-05-21T02:40:52.551Z,12.85
2019-05-21T02:41:52.469Z,12.85
2019-05-21T02:42:52.469Z,12.80
2019-05-21T02:43:52.537Z,12.80
2019-05-21T02:44:54.422Z,12.80
2019-05-21T02:45:52.444Z,12.83
2019-05-21T02:46:52.414Z,12.83
2019-05-21T02:47:52.479Z,12.83
2019-05-21T02:48:52.463Z,12.83
2019-05-21T02:49:52.539Z,12.80
2019-05-21T02:50:52.423Z,12.83
2019-05-21T02:51:52.407Z,12.67
2019-05-21T02:52:54.445Z,12.73
2019-05-21T02:53:52.343Z,12.82
2019-05-21T02:54:52.411Z,12.67
2019-05-21T02:55:52.379Z,12.70
2019-05-21T02:56:52.455Z,12.62
2019-05-21T02:57:52.300Z,12.70
2019-05-21T02:58:52.300Z,12.62
2019-05-21T02:59:52.346Z,12.70
2019-05-21T03:00:52.310Z,12.61
2019-05-21T03:01:52.398Z,12.60
2019-05-21T03:02:52.259Z,12.55
2019-05-21T03:03:52.248Z,12.65
2019-05-21T03:04:52.227Z,12.57
2019-05-21T03:05:52.367Z,12.62
2019-05-21T03:06:52.217Z,12.62
2019-05-21T03:07:52.348Z,12.61
2019-05-21T03:08:52.177Z,12.54
2019-05-21T03:09:52.172Z,12.53
2019-05-21T03:10:52.223Z,12.43
2019-05-21T03:11:52.255Z,12.53
2019-05-21T03:12:52.222Z,12.47
2019-05-21T03:13:52.129Z,12.49
2019-05-21T03:14:52.139Z,12.46
2019-05-21T03:15:52.121Z,12.47
2019-05-21T03:16:52.227Z,12.45
2019-05-21T03:17:52.085Z,12.47
2019-05-21T03:18:53.070Z,12.49
2019-05-21T03:19:52.082Z,12.49
2019-05-21T03:20:52.069Z,12.49
2019-05-21T03:21:52.089Z,12.45
2019-05-21T03:22:52.115Z,12.46
2019-05-21T03:23:52.032Z,12.53
2019-05-21T03:24:52.160Z,12.43
2019-05-21T03:25:52.010Z,12.46
2019-05-21T03:26:52.002Z,12.53
2019-05-21T03:27:52.018Z,12.46
2019-05-21T03:28:52.808Z,12.45
2019-05-21T03:29:52.118Z,12.45
2019-05-21T03:30:51.979Z,12.49
2019-05-21T03:31:51.995Z,12.39
2019-05-21T03:32:51.929Z,12.43
2019-05-21T03:33:51.964Z,12.46
2019-05-21T03:34:51.906Z,12.46
2019-05-21T03:35:52.030Z,12.45
2019-05-21T03:36:51.875Z,12.46
2019-05-21T03:37:51.913Z,12.45
2019-05-21T03:38:51.923Z,12.46
2019-05-21T03:39:51.918Z,12.37
2019-05-21T03:40:51.842Z,12.37
2019-05-21T03:41:51.977Z,12.43
2019-05-21T03:42:51.828Z,12.45
2019-05-21T03:43:51.818Z,12.42
2019-05-21T03:44:59.990Z,12.47
2019-05-21T03:45:52.826Z,12.47
2019-05-21T03:46:51.843Z,12.46
2019-05-21T03:47:51.761Z,12.47
2019-05-21T03:48:51.776Z,12.49
2019-05-21T03:49:51.794Z,12.49
2019-05-21T03:50:51.771Z,12.42
2019-05-21T03:51:51.722Z,12.46
2019-05-21T03:52:51.804Z,12.53
2019-05-21T03:53:51.733Z,12.49
2019-05-21T03:54:51.739Z,12.49
2019-05-21T03:55:51.693Z,12.46
2019-05-21T03:56:51.723Z,12.47
2019-05-21T03:57:51.666Z,12.49
2019-05-21T03:58:51.759Z,12.53
2019-05-21T03:59:51.698Z,12.49
2019-05-21T04:00:51.639Z,12.50
2019-05-21T04:01:52.725Z,12.46
2019-05-21T04:02:51.602Z,12.46
2019-05-21T04:03:51.661Z,12.47
2019-05-21T04:04:51.592Z,12.45
2019-05-21T04:05:51.569Z,12.45
2019-05-21T04:06:52.663Z,12.46
2019-05-21T04:07:51.575Z,12.45
2019-05-21T04:08:51.553Z,12.46
2019-05-21T04:09:51.598Z,12.50
2019-05-21T04:10:51.567Z,12.53
2019-05-21T04:11:53.255Z,12.43
2019-05-21T04:12:51.533Z,12.49
2019-05-21T04:13:51.498Z,12.49
2019-05-21T04:14:51.527Z,12.43
2019-05-21T04:15:51.497Z,12.50
2019-05-21T04:16:51.479Z,12.43
2019-05-21T04:17:51.443Z,12.47
2019-05-21T04:18:51.459Z,12.45
2019-05-21T04:19:51.410Z,12.47
2019-05-21T04:20:51.542Z,12.47
2019-05-21T04:21:51.407Z,12.49
2019-05-21T04:22:51.432Z,12.46
2019-05-21T04:23:51.513Z,12.47
2019-05-21T04:24:51.370Z,12.46
2019-05-21T04:25:51.464Z,12.53
2019-05-21T04:26:51.385Z,12.46
2019-05-21T04:27:51.417Z,12.45
2019-05-21T04:28:51.337Z,12.50
2019-05-21T04:29:51.469Z,12.50
2019-05-21T04:30:51.379Z,12.49
2019-05-21T04:31:52.468Z,12.47
2019-05-21T04:32:51.305Z,12.53
2019-05-21T04:33:51.262Z,12.43
2019-05-21T04:34:51.373Z,12.55
2019-05-21T04:35:51.335Z,12.47
2019-05-21T04:37:08.887Z,12.42
2019-05-21T04:37:52.240Z,12.43
2019-05-21T04:38:51.296Z,12.53
2019-05-21T04:39:51.291Z,12.49
2019-05-21T04:40:51.241Z,12.47
2019-05-21T04:41:51.221Z,12.50
2019-05-21T04:42:51.188Z,12.60
2019-05-21T04:43:51.213Z,12.50
2019-05-21T04:44:51.184Z,12.62
2019-05-21T04:45:51.287Z,12.57
2019-05-21T04:46:51.132Z,12.61
2019-05-21T04:47:51.140Z,12.57
2019-05-21T04:48:51.104Z,12.60
2019-05-21T04:49:51.185Z,12.57
2019-05-21T04:50:51.222Z,12.60
2019-05-21T04:51:51.095Z,12.64
2019-05-21T04:52:51.288Z,12.61
2019-05-21T04:53:51.052Z,12.60
2019-05-21T04:54:51.173Z,12.60
2019-05-21T04:55:51.090Z,12.58
2019-05-21T04:56:51.055Z,12.60
2019-05-21T04:57:51.172Z,12.65
2019-05-21T04:58:51.062Z,12.58
2019-05-21T04:59:52.139Z,12.72
2019-05-21T05:00:50.978Z,12.70
2019-05-21T05:01:51.083Z,12.72
2019-05-21T05:02:50.968Z,12.75
2019-05-21T05:03:52.052Z,12.67
2019-05-21T05:04:50.950Z,12.64
2019-05-21T05:05:51.095Z,12.72
2019-05-21T05:06:51.090Z,12.72
2019-05-21T05:07:51.100Z,12.65
2019-05-21T05:08:50.891Z,12.70
2019-05-21T05:09:51.107Z,12.70
2019-05-21T05:10:50.950Z,12.67
2019-05-21T05:11:51.000Z,12.75
2019-05-21T05:12:50.852Z,12.72
2019-05-21T05:13:51.002Z,12.72
2019-05-21T05:14:50.851Z,12.68
2019-05-21T05:15:50.976Z,12.68
2019-05-21T05:16:50.853Z,12.65
2019-05-21T05:17:50.984Z,12.72
2019-05-21T05:18:50.826Z,12.73
2019-05-21T05:19:50.944Z,12.80
2019-05-21T05:20:50.804Z,12.72
2019-05-21T05:21:51.001Z,12.80
2019-05-21T05:22:50.793Z,12.75
2019-05-21T05:23:50.749Z,12.80
2019-05-21T05:24:50.882Z,12.75
2019-05-21T05:25:50.710Z,12.80
2019-05-21T05:26:50.962Z,12.64
2019-05-21T05:27:50.714Z,12.76
2019-05-21T05:28:50.853Z,12.82
2019-05-21T05:29:50.669Z,12.83
2019-05-21T05:30:50.895Z,12.87
2019-05-21T05:31:50.648Z,12.90
2019-05-21T05:32:50.834Z,12.86
2019-05-21T05:33:50.660Z,12.85
2019-05-21T05:34:50.711Z,12.85
2019-05-21T05:35:50.606Z,12.90
2019-05-21T05:36:52.832Z,13.00
2019-05-21T05:37:50.600Z,12.98
2019-05-21T05:38:50.762Z,13.03
2019-05-21T05:39:50.640Z,13.11
2019-05-21T05:40:50.603Z,13.12
2019-05-21T05:41:52.712Z,13.15
2019-05-21T05:42:50.542Z,13.08
2019-05-21T05:43:50.732Z,13.04
2019-05-21T05:44:50.527Z,13.16
2019-05-21T05:45:50.526Z,13.15
2019-05-21T05:46:50.500Z,12.98
2019-05-21T05:47:52.653Z,12.95
2019-05-21T05:48:50.468Z,13.00
2019-05-21T05:49:51.627Z,13.00
2019-05-21T05:50:50.447Z,13.15
2019-05-21T05:51:50.434Z,13.04
2019-05-21T05:52:50.550Z,13.01
2019-05-21T05:53:50.417Z,12.98
2019-05-21T05:54:50.708Z,13.04
2019-05-21T05:55:50.393Z,13.01
2019-05-21T05:56:50.386Z,13.00
2019-05-21T05:57:50.485Z,12.97
2019-05-21T05:58:50.427Z,13.00
2019-05-21T05:59:51.514Z,12.93
2019-05-21T06:00:50.351Z,13.03
2019-05-21T06:01:50.511Z,13.00
2019-05-21T06:02:50.321Z,12.90
2019-05-21T06:03:50.487Z,12.98
2019-05-21T06:04:50.307Z,12.93
2019-05-21T06:05:50.435Z,12.94
2019-05-21T06:06:50.351Z,12.97
2019-05-21T06:07:59.437Z,12.86
2019-05-21T06:08:51.457Z,12.95
2019-05-21T06:09:50.457Z,12.93
2019-05-21T06:10:50.246Z,12.98
2019-05-21T06:11:50.367Z,12.97
2019-05-21T06:12:50.466Z,13.00
2019-05-21T06:13:50.255Z,12.94
2019-05-21T06:14:52.324Z,12.98
2019-05-21T06:15:50.200Z,13.04
2019-05-21T06:16:50.322Z,13.01
2019-05-21T06:17:50.177Z,13.08
2019-05-21T06:18:50.389Z,13.04
2019-05-21T06:19:50.189Z,13.01
2019-05-21T06:20:52.254Z,13.08
2019-05-21T06:21:50.165Z,13.08
2019-05-21T06:22:50.234Z,13.08
2019-05-21T06:23:50.093Z,13.09
2019-05-21T06:24:50.140Z,13.08
2019-05-21T06:25:50.075Z,13.05
2019-05-21T06:26:50.245Z,13.19
2019-05-21T06:27:50.068Z,13.25
2019-05-21T06:28:51.193Z,13.25
2019-05-21T06:29:50.024Z,13.25
2019-05-21T06:30:50.065Z,13.31
2019-05-21T06:31:51.108Z,13.20
2019-05-21T06:32:50.067Z,13.28
2019-05-21T06:33:50.107Z,13.20
2019-05-21T06:34:49.994Z,13.22
2019-05-21T06:35:52.064Z,13.15
2019-05-21T06:36:49.953Z,13.22
2019-05-21T06:37:51.126Z,13.05
2019-05-21T06:38:49.933Z,13.09
2019-05-21T06:39:50.052Z,13.20
2019-05-21T06:40:50.006Z,13.01
2019-05-21T06:41:49.902Z,12.97
2019-05-21T06:42:49.907Z,13.01
2019-05-21T06:43:49.975Z,12.98
2019-05-21T06:44:49.874Z,12.87
2019-05-21T06:45:50.032Z,12.90
2019-05-21T06:46:49.860Z,12.87
2019-05-21T06:47:49.829Z,12.86
2019-05-21T06:48:50.062Z,12.90
2019-05-21T06:49:49.814Z,13.03
2019-05-21T06:50:49.990Z,13.01
2019-05-21T06:51:49.803Z,12.95
2019-05-21T06:52:49.944Z,12.98
2019-05-21T06:53:49.772Z,12.93
2019-05-21T06:54:49.939Z,12.98
2019-05-21T06:55:49.848Z,12.97
2019-05-21T06:56:50.896Z,12.91
2019-05-21T06:57:49.739Z,12.91
2019-05-21T06:58:50.871Z,12.91
2019-05-21T06:59:49.710Z,12.83
2019-05-21T07:00:49.953Z,12.86
2019-05-21T07:01:49.709Z,12.91
2019-05-21T07:02:50.799Z,12.95
2019-05-21T07:03:49.676Z,12.86
2019-05-21T07:04:49.673Z,12.85
2019-05-21T07:05:58.647Z,12.79
2019-05-21T07:06:50.641Z,12.87
2019-05-21T07:07:49.830Z,12.79
2019-05-21T07:08:49.678Z,12.80
2019-05-21T07:09:49.734Z,12.80
2019-05-21T07:10:49.757Z,12.68
2019-05-21T07:11:49.583Z,12.73
2019-05-21T07:12:49.701Z,12.67
2019-05-21T07:13:49.908Z,12.75
2019-05-21T07:14:49.666Z,12.75
2019-05-21T07:15:49.539Z,12.73
2019-05-21T07:16:51.629Z,12.76
2019-05-21T07:17:49.523Z,12.67
2019-05-21T07:18:49.666Z,12.78
2019-05-21T07:19:49.505Z,12.75
2019-05-21T07:20:50.616Z,12.73
2019-05-21T07:21:49.529Z,12.78
2019-05-21T07:22:50.689Z,12.80
2019-05-21T07:23:49.502Z,12.82
2019-05-21T07:24:49.553Z,12.75
2019-05-21T07:25:49.441Z,12.73
2019-05-21T07:26:51.645Z,12.76
2019-05-21T07:27:49.434Z,12.90
2019-05-21T07:28:49.555Z,12.76
2019-05-21T07:29:49.407Z,12.76
2019-05-21T07:30:49.517Z,12.78
2019-05-21T07:31:49.428Z,12.78
2019-05-21T07:32:49.546Z,12.76
2019-05-21T07:33:49.368Z,12.83
2019-05-21T07:34:49.536Z,12.79
2019-05-21T07:35:49.381Z,12.83
2019-05-21T07:36:50.511Z,12.79
2019-05-21T07:37:49.326Z,12.80
2019-05-21T07:38:53.868Z,12.83
2019-05-21T07:39:50.443Z,12.73
2019-05-21T07:40:49.322Z,12.75
2019-05-21T07:41:50.360Z,12.76
2019-05-21T07:42:49.258Z,12.78
2019-05-21T07:43:49.961Z,12.80
2019-05-21T07:44:49.234Z,12.85
2019-05-21T07:45:49.455Z,12.83
2019-05-21T07:46:49.223Z,12.87
2019-05-21T07:47:49.369Z,12.85
2019-05-21T07:48:49.214Z,12.80
2019-05-21T07:49:49.368Z,12.87
2019-05-21T07:50:49.173Z,12.80
2019-05-21T07:51:50.274Z,12.85
2019-05-21T07:52:49.153Z,12.85
2019-05-21T07:53:49.310Z,12.83
2019-05-21T07:54:49.216Z,12.90
2019-05-21T07:55:49.121Z,12.85
2019-05-21T07:56:49.117Z,12.91
2019-05-21T07:57:49.238Z,12.87
2019-05-21T07:58:49.079Z,12.90
2019-05-21T07:59:49.202Z,12.98
2019-05-21T08:00:49.106Z,13.01
2019-05-21T08:01:49.048Z,13.03
2019-05-21T08:02:49.110Z,12.98
2019-05-21T08:03:50.089Z,13.00
2019-05-21T08:04:49.027Z,12.97
2019-05-21T08:05:49.089Z,12.95
2019-05-21T08:06:49.026Z,13.00
2019-05-21T08:07:49.020Z,13.04
2019-05-21T08:08:49.145Z,13.13
2019-05-21T08:09:49.020Z,13.08
2019-05-21T08:10:49.136Z,13.13
2019-05-21T08:11:48.991Z,13.11
2019-05-21T08:12:48.940Z,13.03
2019-05-21T08:13:48.987Z,13.09
2019-05-21T08:14:49.047Z,13.05
2019-05-21T08:15:48.901Z,13.09
2019-05-21T08:16:50.071Z,13.12
2019-05-21T08:17:48.890Z,13.05
2019-05-21T08:18:48.871Z,13.08
2019-05-21T08:19:48.868Z,13.05
2019-05-21T08:20:48.999Z,13.05
2019-05-21T08:21:48.902Z,13.08
2019-05-21T08:22:49.902Z,13.11
2019-05-21T08:23:48.827Z,13.04
2019-05-21T08:24:48.965Z,13.09
2019-05-21T08:25:48.803Z,13.04
2019-05-21T08:26:48.917Z,13.22
2019-05-21T08:27:48.806Z,13.11
2019-05-21T08:28:48.886Z,13.09
2019-05-21T08:29:49.872Z,13.13
2019-05-21T08:30:48.846Z,13.22
2019-05-21T08:31:48.731Z,13.13
2019-05-21T08:32:48.856Z,13.23
2019-05-21T08:33:48.866Z,13.23
2019-05-21T08:34:48.834Z,13.19
2019-05-21T08:35:48.703Z,13.16
2019-05-21T08:36:49.811Z,13.15
2019-05-21T08:37:48.673Z,13.13
2019-05-21T08:38:48.831Z,13.16
2019-05-21T08:39:48.695Z,13.22
2019-05-21T08:40:48.732Z,13.18
2019-05-21T08:41:48.735Z,13.19
2019-05-21T08:42:48.630Z,13.23
2019-05-21T08:43:48.720Z,13.31
2019-05-21T08:44:48.673Z,13.18
2019-05-21T08:45:48.585Z,13.31
2019-05-21T08:46:48.584Z,13.37
2019-05-21T08:47:48.703Z,13.27
2019-05-21T08:48:48.557Z,13.30
2019-05-21T08:49:48.667Z,13.35
2019-05-21T08:50:48.636Z,13.28
2019-05-21T08:51:48.529Z,13.39
2019-05-21T08:52:48.641Z,13.41
2019-05-21T08:53:48.505Z,13.44
2019-05-21T08:54:48.646Z,13.42
2019-05-21T08:55:48.506Z,13.53
2019-05-21T08:56:48.489Z,13.53
2019-05-21T08:58:05.559Z,13.44
2019-05-21T08:58:49.906Z,13.50
2019-05-21T08:59:48.491Z,13.42
2019-05-21T09:00:48.545Z,13.38
2019-05-21T09:01:48.419Z,13.49
2019-05-21T09:02:48.435Z,13.53
2019-05-21T09:03:48.511Z,13.54
2019-05-21T09:04:48.481Z,13.54
2019-05-21T09:05:48.467Z,13.52
2019-05-21T09:06:48.408Z,13.52
2019-05-21T09:07:53.149Z,13.52
2019-05-21T09:08:49.338Z,13.46
2019-05-21T09:09:51.394Z,13.47
2019-05-21T09:10:48.331Z,13.49
2019-05-21T09:11:48.455Z,13.39
2019-05-21T09:12:48.295Z,13.39
2019-05-21T09:13:48.344Z,13.38
2019-05-21T09:14:48.435Z,13.38
2019-05-21T09:15:48.326Z,13.41
2019-05-21T09:16:48.333Z,13.46
2019-05-21T09:17:48.281Z,13.44
2019-05-21T09:18:48.334Z,13.38
2019-05-21T09:19:48.252Z,13.47
2019-05-21T09:20:48.313Z,13.42
2019-05-21T09:21:48.204Z,13.46
2019-05-21T09:22:48.291Z,13.41
2019-05-21T09:23:48.249Z,13.37
2019-05-21T09:24:48.173Z,13.50
2019-05-21T09:25:49.638Z,13.54
2019-05-21T09:26:48.146Z,13.52
2019-05-21T09:27:48.199Z,13.56
2019-05-21T09:28:48.229Z,13.50
2019-05-21T09:29:48.138Z,13.56
2019-05-21T09:30:48.101Z,13.53
2019-05-21T09:31:48.238Z,13.54
2019-05-21T09:32:48.387Z,13.63
2019-05-21T09:33:48.149Z,13.60
2019-05-21T09:34:49.495Z,13.62
2019-05-21T09:35:48.056Z,13.60
2019-05-21T09:36:48.157Z,13.65
2019-05-21T09:37:48.069Z,13.71
2019-05-21T09:38:48.073Z,13.75
2019-05-21T09:39:48.016Z,13.75
2019-05-21T09:40:47.996Z,13.72
2019-05-21T09:41:47.985Z,13.63
2019-05-21T09:42:48.174Z,13.62
2019-05-21T09:43:48.002Z,13.60
2019-05-21T09:44:48.004Z,13.47
2019-05-21T09:45:47.968Z,13.37
2019-05-21T09:46:47.932Z,13.44
2019-05-21T09:47:48.031Z,13.39
2019-05-21T09:48:47.959Z,13.46
2019-05-21T09:49:48.043Z,13.35
2019-05-21T09:50:47.888Z,13.39
2019-05-21T09:51:47.879Z,13.22
2019-05-21T09:52:47.869Z,13.42
2019-05-21T09:53:48.021Z,13.39
2019-05-21T09:54:47.859Z,13.46
2019-05-21T09:55:47.867Z,13.41
2019-05-21T09:56:47.834Z,13.28
2019-05-21T09:57:47.817Z,13.38
2019-05-21T09:58:48.873Z,13.39
2019-05-21T09:59:47.796Z,13.35
2019-05-21T10:00:47.908Z,13.28
2019-05-21T10:01:48.526Z,13.30
2019-05-21T10:02:47.835Z,13.31
2019-05-21T10:03:47.812Z,13.38
2019-05-21T10:04:47.898Z,13.46
2019-05-21T10:05:47.737Z,13.38
2019-05-21T10:06:47.820Z,13.38
2019-05-21T10:07:47.711Z,13.46
2019-05-21T10:08:47.763Z,13.50
2019-05-21T10:09:47.696Z,13.50
2019-05-21T10:10:47.770Z,13.50
2019-05-21T10:11:47.657Z,13.49
2019-05-21T10:12:48.144Z,13.41
2019-05-21T10:13:47.651Z,13.41
2019-05-21T10:14:47.693Z,13.47
2019-05-21T10:15:47.663Z,13.37
2019-05-21T10:16:47.714Z,13.25
2019-05-21T10:17:47.648Z,13.28
2019-05-21T10:18:47.622Z,13.31
2019-05-21T10:19:47.575Z,13.31
2019-05-21T10:20:48.350Z,13.27
2019-05-21T10:21:47.595Z,13.25
2019-05-21T10:22:47.646Z,13.42
2019-05-21T10:23:47.593Z,13.44
2019-05-21T10:24:47.566Z,13.28
2019-05-21T10:25:47.532Z,13.37
2019-05-21T10:26:47.667Z,13.19
2019-05-21T10:27:47.552Z,13.25
2019-05-21T10:28:47.637Z,13.19
2019-05-21T10:29:47.459Z,13.15
2019-05-21T10:30:47.450Z,13.22
2019-05-21T10:31:47.500Z,13.20
2019-05-21T10:32:47.435Z,13.15
2019-05-21T10:33:47.676Z,13.27
2019-05-21T10:34:47.404Z,13.08
2019-05-21T10:35:47.416Z,13.13
2019-05-21T10:36:47.387Z,13.13
2019-05-21T10:37:55.001Z,13.19
2019-05-21T10:38:48.501Z,13.18
2019-05-21T10:39:47.456Z,13.20
2019-05-21T10:40:47.342Z,13.04
2019-05-21T10:41:47.355Z,13.08
2019-05-21T10:42:48.381Z,13.09
2019-05-21T10:43:47.351Z,13.12
2019-05-21T10:44:47.399Z,13.15
2019-05-21T10:45:47.295Z,13.09
2019-05-21T10:46:47.414Z,13.11
2019-05-21T10:47:47.268Z,13.09
2019-05-21T10:48:47.471Z,13.13
2019-05-21T10:49:47.291Z,13.05
2019-05-21T10:50:47.320Z,13.04
2019-05-21T10:51:47.228Z,13.09
2019-05-21T10:52:47.326Z,13.05
2019-05-21T10:53:47.255Z,13.09
2019-05-21T10:54:47.247Z,13.04
2019-05-21T10:55:47.181Z,13.13
2019-05-21T10:56:48.621Z,13.20
2019-05-21T10:57:47.213Z,13.05
2019-05-21T10:58:47.205Z,13.01
2019-05-21T10:59:47.139Z,13.00
2019-05-21T11:00:49.221Z,13.03
2019-05-21T11:01:47.166Z,13.08
2019-05-21T11:02:48.223Z,13.04
2019-05-21T11:03:47.113Z,13.04
2019-05-21T11:04:49.212Z,13.13
2019-05-21T11:05:47.083Z,13.04
2019-05-21T11:06:47.139Z,13.00
2019-05-21T11:07:47.054Z,12.97
2019-05-21T11:08:48.155Z,12.87
2019-05-21T11:09:47.156Z,12.90
2019-05-21T11:10:47.060Z,12.90
2019-05-21T11:11:47.057Z,12.93
2019-05-21T11:12:47.001Z,12.98
2019-05-21T11:13:47.177Z,12.90
2019-05-21T11:14:47.013Z,13.00
2019-05-21T11:15:47.006Z,12.97
2019-05-21T11:16:46.985Z,12.90
2019-05-21T11:17:59.162Z,12.87
2019-05-21T11:18:47.922Z,12.94
2019-05-21T11:19:47.005Z,12.87
2019-05-21T11:20:46.923Z,12.94
2019-05-21T11:21:46.941Z,12.90
2019-05-21T11:22:46.980Z,12.91
2019-05-21T11:23:46.943Z,13.00
2019-05-21T11:24:46.936Z,12.97
2019-05-21T11:25:46.900Z,13.00
2019-05-21T11:26:48.024Z,13.00
2019-05-21T11:27:46.841Z,13.01
2019-05-21T11:28:46.864Z,12.97
2019-05-21T11:29:46.814Z,12.93
2019-05-21T11:30:46.936Z,12.86
2019-05-21T11:31:56.432Z,12.90
2019-05-21T11:32:48.156Z,12.87
2019-05-21T11:33:46.940Z,12.90
2019-05-21T11:34:49.973Z,12.94
2019-05-21T11:35:46.868Z,12.91
2019-05-21T11:36:46.761Z,12.95
2019-05-21T11:37:48.197Z,12.91
2019-05-21T11:38:46.785Z,12.93
2019-05-21T11:39:46.851Z,13.04
2019-05-21T11:40:50.820Z,13.03
2019-05-21T11:41:46.738Z,12.94
2019-05-21T11:42:46.677Z,12.94
2019-05-21T11:43:46.815Z,13.01
2019-05-21T11:44:46.671Z,12.87
2019-05-21T11:45:46.994Z,12.91
2019-05-21T11:46:46.627Z,12.86
2019-05-21T11:47:46.806Z,12.91
2019-05-21T11:48:46.616Z,12.95
2019-05-21T11:49:46.659Z,13.00
2019-05-21T11:50:46.606Z,12.87
2019-05-21T11:51:46.732Z,12.93
2019-05-21T11:52:46.568Z,12.91
2019-05-21T11:53:47.740Z,13.01
2019-05-21T11:54:46.642Z,12.86
2019-05-21T11:55:46.543Z,12.91
2019-05-21T11:56:46.739Z,13.05
2019-05-21T11:57:46.530Z,12.94
2019-05-21T11:58:48.686Z,13.00
2019-05-21T11:59:46.562Z,12.86
2019-05-21T12:00:46.494Z,12.93
2019-05-21T12:01:46.466Z,13.04
2019-05-21T12:02:46.885Z,12.97
2019-05-21T12:03:46.476Z,13.04
2019-05-21T12:04:46.655Z,13.05
2019-05-21T12:05:46.435Z,13.04
2019-05-21T12:06:46.444Z,13.05
2019-05-21T12:07:46.629Z,13.03
2019-05-21T12:08:56.459Z,13.09
2019-05-21T12:09:47.382Z,13.13
2019-05-21T12:10:46.552Z,13.18
2019-05-21T12:11:46.373Z,13.12
2019-05-21T12:12:46.347Z,13.22
2019-05-21T12:13:47.530Z,13.20
2019-05-21T12:14:46.347Z,13.16
2019-05-21T12:15:46.461Z,13.19
2019-05-21T12:16:46.861Z,13.20
2019-05-21T12:17:46.327Z,13.15
2019-05-21T12:18:46.333Z,13.30
2019-05-21T12:19:46.541Z,13.19
2019-05-21T12:20:46.363Z,13.23
2019-05-21T12:21:46.514Z,13.23
2019-05-21T12:22:46.253Z,13.25
2019-05-21T12:23:46.338Z,13.27
2019-05-21T12:24:46.234Z,13.27
2019-05-21T12:25:46.449Z,13.28
2019-05-21T12:26:46.265Z,13.33
2019-05-21T12:27:46.386Z,13.46
2019-05-21T12:28:46.187Z,13.42
2019-05-21T12:29:46.168Z,13.57
2019-05-21T12:30:46.382Z,13.52
2019-05-21T12:31:46.215Z,13.68
2019-05-21T12:32:46.267Z,13.63
2019-05-21T12:33:46.154Z,13.65
2019-05-21T12:34:46.152Z,13.63
2019-05-21T12:35:46.105Z,13.71
2019-05-21T12:36:46.301Z,13.62
2019-05-21T12:37:46.082Z,13.75
2019-05-21T12:38:46.230Z,13.74
2019-05-21T12:39:46.122Z,13.72
2019-05-21T12:40:46.055Z,13.72
2019-05-21T12:41:52.987Z,13.87
2019-05-21T12:42:46.053Z,13.92
2019-05-21T12:43:46.198Z,14.08
2019-05-21T12:44:46.051Z,14.07
2019-05-21T12:45:46.051Z,14.15
2019-05-21T12:46:46.007Z,14.17
2019-05-21T12:47:50.446Z,14.18
2019-05-21T12:48:46.030Z,14.29
2019-05-21T12:49:47.115Z,14.20
2019-05-21T12:50:45.958Z,14.32
2019-05-21T12:51:45.989Z,14.28
2019-05-21T12:52:46.096Z,14.35